sensor_id;sensor_type;location;lat;lon;timestamp;P1;durP1;ratioP1;P2;durP2;ratioP2
21671;SDS011;10997;52.242;8.168;2022-12-08T00:03:48;26.63;;;15.88;;
21671;SDS011;10997;52.242;8.168;2022-12-08T00:08:49;28.00;;;16.65;;
21671;SDS011;10997;52.242;8.168;2022-12-08T00:14:09;26.75;;;15.98;;
21671;SDS011;10997;52.242;8.168;2022-12-08T00:19:09;23.45;;;13.52;;
21671;SDS011;10997;52.242;8.168;2022-12-08T00:24:10;23.27;;;13.90;;
21671;SDS011;10997;52.242;8.168;2022-12-08T00:29:11;24.85;;;14.70;;
21671;SDS011;10997;52.242;8.168;2022-12-08T00:34:13;25.98;;;14.88;;
21671;SDS011;10997;52.242;8.168;2022-12-08T00:39:15;25.42;;;15.20;;
21671;SDS011;10997;52.242;8.168;2022-12-08T00:44:16;23.75;;;14.52;;
21671;SDS011;10997;52.242;8.168;2022-12-08T00:49:20;26.38;;;15.07;;
21671;SDS011;10997;52.242;8.168;2022-12-08T00:54:22;26.05;;;17.00;;
21671;SDS011;10997;52.242;8.168;2022-12-08T00:59:23;29.60;;;16.73;;
21671;SDS011;10997;52.242;8.168;2022-12-08T01:04:23;30.33;;;17.42;;
21671;SDS011;10997;52.242;8.168;2022-12-08T01:09:24;28.40;;;18.10;;
21671;SDS011;10997;52.242;8.168;2022-12-08T01:14:24;32.88;;;19.95;;
21671;SDS011;10997;52.242;8.168;2022-12-08T01:19:25;32.30;;;21.38;;
21671;SDS011;10997;52.242;8.168;2022-12-08T01:24:25;38.17;;;22.75;;
21671;SDS011;10997;52.242;8.168;2022-12-08T01:29:26;27.85;;;15.38;;
21671;SDS011;10997;52.242;8.168;2022-12-08T01:34:33;44.42;;;26.85;;
21671;SDS011;10997;52.242;8.168;2022-12-08T01:39:33;44.55;;;27.45;;
21671;SDS011;10997;52.242;8.168;2022-12-08T01:49:35;41.33;;;27.42;;
21671;SDS011;10997;52.242;8.168;2022-12-08T01:54:38;48.25;;;26.75;;
21671;SDS011;10997;52.242;8.168;2022-12-08T01:59:53;42.70;;;26.73;;
21671;SDS011;10997;52.242;8.168;2022-12-08T02:05:01;43.38;;;27.48;;
21671;SDS011;10997;52.242;8.168;2022-12-08T02:10:03;46.42;;;29.13;;
21671;SDS011;10997;52.242;8.168;2022-12-08T02:15:04;48.95;;;28.90;;
21671;SDS011;10997;52.242;8.168;2022-12-08T02:20:18;46.75;;;28.45;;
21671;SDS011;10997;52.242;8.168;2022-12-08T02:30:37;52.65;;;29.10;;
21671;SDS011;10997;52.242;8.168;2022-12-08T02:41:58;46.50;;;28.10;;
21671;SDS011;10997;52.242;8.168;2022-12-08T02:47:27;43.45;;;28.55;;
21671;SDS011;10997;52.242;8.168;2022-12-08T02:57:43;40.13;;;26.05;;
21671;SDS011;10997;52.242;8.168;2022-12-08T03:13:47;40.97;;;25.15;;
21671;SDS011;10997;52.242;8.168;2022-12-08T03:18:52;38.38;;;26.52;;
21671;SDS011;10997;52.242;8.168;2022-12-08T03:24:08;39.53;;;25.55;;
21671;SDS011;10997;52.242;8.168;2022-12-08T03:29:10;31.27;;;22.05;;
21671;SDS011;10997;52.242;8.168;2022-12-08T03:34:13;33.20;;;22.90;;
21671;SDS011;10997;52.242;8.168;2022-12-08T03:39:15;31.65;;;21.33;;
21671;SDS011;10997;52.242;8.168;2022-12-08T03:44:16;32.53;;;22.15;;
21671;SDS011;10997;52.242;8.168;2022-12-08T03:49:16;31.00;;;22.42;;
21671;SDS011;10997;52.242;8.168;2022-12-08T03:54:17;34.08;;;22.60;;
21671;SDS011;10997;52.242;8.168;2022-12-08T03:59:17;31.30;;;21.73;;
21671;SDS011;10997;52.242;8.168;2022-12-08T04:04:18;32.50;;;21.95;;
21671;SDS011;10997;52.242;8.168;2022-12-08T04:09:19;33.53;;;21.77;;
21671;SDS011;10997;52.242;8.168;2022-12-08T04:14:19;31.70;;;21.58;;
21671;SDS011;10997;52.242;8.168;2022-12-08T04:19:20;30.15;;;21.10;;
21671;SDS011;10997;52.242;8.168;2022-12-08T04:24:21;26.67;;;19.85;;
21671;SDS011;10997;52.242;8.168;2022-12-08T04:29:21;28.75;;;21.30;;
21671;SDS011;10997;52.242;8.168;2022-12-08T04:34:22;26.20;;;19.40;;
21671;SDS011;10997;52.242;8.168;2022-12-08T04:39:23;27.25;;;19.80;;
21671;SDS011;10997;52.242;8.168;2022-12-08T04:44:23;27.42;;;20.17;;
21671;SDS011;10997;52.242;8.168;2022-12-08T04:49:24;31.50;;;21.15;;
21671;SDS011;10997;52.242;8.168;2022-12-08T04:54:24;25.27;;;19.08;;
21671;SDS011;10997;52.242;8.168;2022-12-08T04:59:25;27.17;;;20.17;;
21671;SDS011;10997;52.242;8.168;2022-12-08T05:04:26;25.95;;;17.88;;
21671;SDS011;10997;52.242;8.168;2022-12-08T05:09:27;23.50;;;17.25;;
21671;SDS011;10997;52.242;8.168;2022-12-08T05:14:27;22.85;;;17.30;;
21671;SDS011;10997;52.242;8.168;2022-12-08T05:19:28;23.50;;;17.33;;
21671;SDS011;10997;52.242;8.168;2022-12-08T05:24:29;25.40;;;17.58;;
21671;SDS011;10997;52.242;8.168;2022-12-08T05:29:29;23.83;;;18.58;;
21671;SDS011;10997;52.242;8.168;2022-12-08T05:34:30;29.73;;;20.50;;
21671;SDS011;10997;52.242;8.168;2022-12-08T05:39:30;29.23;;;20.25;;
21671;SDS011;10997;52.242;8.168;2022-12-08T05:44:31;28.02;;;20.70;;
21671;SDS011;10997;52.242;8.168;2022-12-08T05:49:31;29.13;;;20.35;;
21671;SDS011;10997;52.242;8.168;2022-12-08T05:54:32;33.22;;;21.63;;
21671;SDS011;10997;52.242;8.168;2022-12-08T05:59:33;31.88;;;20.35;;
21671;SDS011;10997;52.242;8.168;2022-12-08T06:04:34;28.23;;;18.95;;
21671;SDS011;10997;52.242;8.168;2022-12-08T06:09:35;30.90;;;19.20;;
21671;SDS011;10997;52.242;8.168;2022-12-08T06:14:36;25.40;;;18.08;;
21671;SDS011;10997;52.242;8.168;2022-12-08T06:19:40;27.20;;;18.42;;
21671;SDS011;10997;52.242;8.168;2022-12-08T06:24:40;26.60;;;19.00;;
21671;SDS011;10997;52.242;8.168;2022-12-08T06:29:41;26.52;;;18.55;;
21671;SDS011;10997;52.242;8.168;2022-12-08T06:34:41;28.25;;;19.02;;
21671;SDS011;10997;52.242;8.168;2022-12-08T06:39:42;25.63;;;18.15;;
21671;SDS011;10997;52.242;8.168;2022-12-08T06:44:42;26.77;;;19.02;;
21671;SDS011;10997;52.242;8.168;2022-12-08T06:49:43;27.90;;;19.45;;
21671;SDS011;10997;52.242;8.168;2022-12-08T06:54:44;26.05;;;18.50;;
21671;SDS011;10997;52.242;8.168;2022-12-08T06:59:44;22.75;;;17.65;;
21671;SDS011;10997;52.242;8.168;2022-12-08T07:04:45;25.63;;;17.02;;
21671;SDS011;10997;52.242;8.168;2022-12-08T07:09:45;23.13;;;16.48;;
21671;SDS011;10997;52.242;8.168;2022-12-08T07:14:46;22.33;;;16.38;;
21671;SDS011;10997;52.242;8.168;2022-12-08T07:19:47;24.65;;;16.50;;
21671;SDS011;10997;52.242;8.168;2022-12-08T07:24:47;26.50;;;17.45;;
21671;SDS011;10997;52.242;8.168;2022-12-08T07:29:48;24.60;;;16.88;;
21671;SDS011;10997;52.242;8.168;2022-12-08T07:34:48;25.55;;;17.10;;
21671;SDS011;10997;52.242;8.168;2022-12-08T07:39:49;28.52;;;17.50;;
21671;SDS011;10997;52.242;8.168;2022-12-08T07:44:49;26.60;;;18.50;;
21671;SDS011;10997;52.242;8.168;2022-12-08T07:49:50;26.17;;;18.95;;
21671;SDS011;10997;52.242;8.168;2022-12-08T07:54:51;29.63;;;18.77;;
21671;SDS011;10997;52.242;8.168;2022-12-08T07:59:51;27.25;;;19.35;;
21671;SDS011;10997;52.242;8.168;2022-12-08T08:04:52;29.60;;;19.58;;
21671;SDS011;10997;52.242;8.168;2022-12-08T08:09:53;28.73;;;19.88;;
21671;SDS011;10997;52.242;8.168;2022-12-08T08:14:53;27.85;;;18.55;;
21671;SDS011;10997;52.242;8.168;2022-12-08T08:19:54;30.17;;;20.45;;
21671;SDS011;10997;52.242;8.168;2022-12-08T08:24:55;27.45;;;19.25;;
21671;SDS011;10997;52.242;8.168;2022-12-08T08:29:55;32.10;;;19.45;;
21671;SDS011;10997;52.242;8.168;2022-12-08T08:34:56;25.90;;;16.00;;
21671;SDS011;10997;52.242;8.168;2022-12-08T08:39:57;23.48;;;15.68;;
21671;SDS011;10997;52.242;8.168;2022-12-08T08:44:57;21.00;;;14.95;;
21671;SDS011;10997;52.242;8.168;2022-12-08T08:49:58;22.98;;;15.13;;
21671;SDS011;10997;52.242;8.168;2022-12-08T08:54:58;21.55;;;14.15;;
21671;SDS011;10997;52.242;8.168;2022-12-08T08:59:59;25.65;;;15.20;;
21671;SDS011;10997;52.242;8.168;2022-12-08T09:05:01;22.05;;;15.38;;
21671;SDS011;10997;52.242;8.168;2022-12-08T09:10:02;24.92;;;15.60;;
21671;SDS011;10997;52.242;8.168;2022-12-08T09:15:03;24.48;;;16.67;;
21671;SDS011;10997;52.242;8.168;2022-12-08T09:20:05;25.02;;;16.35;;
21671;SDS011;10997;52.242;8.168;2022-12-08T09:25:06;25.58;;;16.50;;
21671;SDS011;10997;52.242;8.168;2022-12-08T09:30:07;24.60;;;15.70;;
21671;SDS011;10997;52.242;8.168;2022-12-08T09:35:08;25.13;;;15.45;;
21671;SDS011;10997;52.242;8.168;2022-12-08T09:40:10;24.33;;;15.88;;
21671;SDS011;10997;52.242;8.168;2022-12-08T09:50:18;23.00;;;15.30;;
21671;SDS011;10997;52.242;8.168;2022-12-08T10:00:50;23.42;;;15.05;;
21671;SDS011;10997;52.242;8.168;2022-12-08T10:11:38;20.75;;;14.70;;
21671;SDS011;10997;52.242;8.168;2022-12-08T10:16:41;21.27;;;14.65;;
21671;SDS011;10997;52.242;8.168;2022-12-08T10:21:46;20.77;;;14.90;;
21671;SDS011;10997;52.242;8.168;2022-12-08T10:26:47;20.35;;;14.88;;
21671;SDS011;10997;52.242;8.168;2022-12-08T10:31:48;23.50;;;14.63;;
21671;SDS011;10997;52.242;8.168;2022-12-08T10:36:53;19.73;;;14.38;;
21671;SDS011;10997;52.242;8.168;2022-12-08T10:42:00;17.92;;;12.95;;
21671;SDS011;10997;52.242;8.168;2022-12-08T10:47:09;20.67;;;13.38;;
21671;SDS011;10997;52.242;8.168;2022-12-08T10:52:21;20.58;;;12.73;;
21671;SDS011;10997;52.242;8.168;2022-12-08T10:57:23;20.30;;;13.35;;
21671;SDS011;10997;52.242;8.168;2022-12-08T11:02:24;16.35;;;11.90;;
21671;SDS011;10997;52.242;8.168;2022-12-08T11:07:24;15.15;;;10.88;;
21671;SDS011;10997;52.242;8.168;2022-12-08T11:12:27;13.05;;;9.90;;
21671;SDS011;10997;52.242;8.168;2022-12-08T11:17:35;13.13;;;9.93;;
21671;SDS011;10997;52.242;8.168;2022-12-08T11:22:43;11.35;;;8.60;;
21671;SDS011;10997;52.242;8.168;2022-12-08T11:27:46;11.13;;;7.43;;
21671;SDS011;10997;52.242;8.168;2022-12-08T11:32:49;9.48;;;6.85;;
21671;SDS011;10997;52.242;8.168;2022-12-08T11:37:57;8.02;;;6.03;;
21671;SDS011;10997;52.242;8.168;2022-12-08T11:43:14;10.30;;;6.30;;
21671;SDS011;10997;52.242;8.168;2022-12-08T11:48:19;8.15;;;6.00;;
21671;SDS011;10997;52.242;8.168;2022-12-08T11:53:52;8.63;;;6.72;;
21671;SDS011;10997;52.242;8.168;2022-12-08T11:59:15;8.95;;;7.40;;
21671;SDS011;10997;52.242;8.168;2022-12-08T12:20:29;7.95;;;5.35;;
21671;SDS011;10997;52.242;8.168;2022-12-08T12:25:36;8.07;;;5.75;;
21671;SDS011;10997;52.242;8.168;2022-12-08T12:30:52;6.82;;;5.45;;
21671;SDS011;10997;52.242;8.168;2022-12-08T12:36:05;8.00;;;4.95;;
21671;SDS011;10997;52.242;8.168;2022-12-08T12:41:08;6.15;;;5.03;;
21671;SDS011;10997;52.242;8.168;2022-12-08T12:51:41;5.53;;;3.97;;
21671;SDS011;10997;52.242;8.168;2022-12-08T12:56:54;7.25;;;4.35;;
21671;SDS011;10997;52.242;8.168;2022-12-08T13:02:10;7.30;;;5.22;;
21671;SDS011;10997;52.242;8.168;2022-12-08T13:07:35;7.60;;;5.27;;
21671;SDS011;10997;52.242;8.168;2022-12-08T13:13:05;7.82;;;5.18;;
21671;SDS011;10997;52.242;8.168;2022-12-08T13:18:30;6.90;;;4.95;;
21671;SDS011;10997;52.242;8.168;2022-12-08T13:33:58;6.85;;;5.25;;
21671;SDS011;10997;52.242;8.168;2022-12-08T13:38:59;7.40;;;5.53;;
21671;SDS011;10997;52.242;8.168;2022-12-08T13:44:04;8.43;;;5.97;;
21671;SDS011;10997;52.242;8.168;2022-12-08T13:49:12;9.98;;;6.07;;
21671;SDS011;10997;52.242;8.168;2022-12-08T13:54:19;8.50;;;5.72;;
21671;SDS011;10997;52.242;8.168;2022-12-08T13:59:29;8.18;;;6.25;;
21671;SDS011;10997;52.242;8.168;2022-12-08T14:04:33;8.88;;;6.22;;
21671;SDS011;10997;52.242;8.168;2022-12-08T14:09:34;10.30;;;7.22;;
21671;SDS011;10997;52.242;8.168;2022-12-08T14:19:45;13.80;;;7.40;;
21671;SDS011;10997;52.242;8.168;2022-12-08T14:24:59;9.85;;;7.22;;
21671;SDS011;10997;52.242;8.168;2022-12-08T14:30:05;10.05;;;7.63;;
21671;SDS011;10997;52.242;8.168;2022-12-08T14:35:21;15.20;;;8.27;;
21671;SDS011;10997;52.242;8.168;2022-12-08T14:40:33;15.55;;;9.32;;
21671;SDS011;10997;52.242;8.168;2022-12-08T14:50:44;15.82;;;8.40;;
21671;SDS011;10997;52.242;8.168;2022-12-08T15:01:23;19.75;;;9.65;;
21671;SDS011;10997;52.242;8.168;2022-12-08T15:06:23;19.35;;;10.77;;
21671;SDS011;10997;52.242;8.168;2022-12-08T15:11:28;21.00;;;12.02;;
21671;SDS011;10997;52.242;8.168;2022-12-08T15:21:36;14.80;;;7.45;;
21671;SDS011;10997;52.242;8.168;2022-12-08T15:26:39;18.38;;;8.23;;
21671;SDS011;10997;52.242;8.168;2022-12-08T15:31:45;15.35;;;7.88;;
21671;SDS011;10997;52.242;8.168;2022-12-08T15:36:46;10.65;;;7.60;;
21671;SDS011;10997;52.242;8.168;2022-12-08T15:41:49;11.18;;;7.55;;
21671;SDS011;10997;52.242;8.168;2022-12-08T15:46:49;13.40;;;8.25;;
21671;SDS011;10997;52.242;8.168;2022-12-08T15:51:52;12.82;;;8.02;;
21671;SDS011;10997;52.242;8.168;2022-12-08T15:56:53;13.13;;;8.70;;
21671;SDS011;10997;52.242;8.168;2022-12-08T16:01:56;14.13;;;8.88;;
21671;SDS011;10997;52.242;8.168;2022-12-08T16:06:56;17.08;;;10.35;;
21671;SDS011;10997;52.242;8.168;2022-12-08T16:11:57;13.18;;;8.30;;
21671;SDS011;10997;52.242;8.168;2022-12-08T16:17:17;14.02;;;8.23;;
21671;SDS011;10997;52.242;8.168;2022-12-08T16:22:18;14.80;;;8.63;;
21671;SDS011;10997;52.242;8.168;2022-12-08T16:27:30;14.18;;;8.25;;
21671;SDS011;10997;52.242;8.168;2022-12-08T16:32:33;13.65;;;8.27;;
21671;SDS011;10997;52.242;8.168;2022-12-08T16:37:34;14.30;;;9.05;;
21671;SDS011;10997;52.242;8.168;2022-12-08T16:42:34;12.40;;;8.68;;
21671;SDS011;10997;52.242;8.168;2022-12-08T16:47:53;12.77;;;7.97;;
21671;SDS011;10997;52.242;8.168;2022-12-08T16:58:02;13.93;;;8.93;;
21671;SDS011;10997;52.242;8.168;2022-12-08T17:03:03;14.18;;;8.57;;
21671;SDS011;10997;52.242;8.168;2022-12-08T17:08:05;13.57;;;8.07;;
21671;SDS011;10997;52.242;8.168;2022-12-08T17:13:06;14.32;;;8.50;;
21671;SDS011;10997;52.242;8.168;2022-12-08T17:18:07;29.67;;;19.33;;
21671;SDS011;10997;52.242;8.168;2022-12-08T17:23:08;15.32;;;8.93;;
21671;SDS011;10997;52.242;8.168;2022-12-08T17:28:08;12.55;;;7.85;;
21671;SDS011;10997;52.242;8.168;2022-12-08T17:33:09;17.10;;;9.95;;
21671;SDS011;10997;52.242;8.168;2022-12-08T17:38:09;16.10;;;8.23;;
21671;SDS011;10997;52.242;8.168;2022-12-08T17:43:13;18.67;;;9.85;;
21671;SDS011;10997;52.242;8.168;2022-12-08T17:48:14;21.10;;;9.63;;
21671;SDS011;10997;52.242;8.168;2022-12-08T17:53:15;19.15;;;9.93;;
21671;SDS011;10997;52.242;8.168;2022-12-08T17:58:15;22.08;;;12.70;;
21671;SDS011;10997;52.242;8.168;2022-12-08T18:03:17;34.75;;;21.90;;
21671;SDS011;10997;52.242;8.168;2022-12-08T18:08:18;37.60;;;25.52;;
21671;SDS011;10997;52.242;8.168;2022-12-08T18:13:18;38.92;;;24.60;;
21671;SDS011;10997;52.242;8.168;2022-12-08T18:18:19;33.33;;;23.20;;
21671;SDS011;10997;52.242;8.168;2022-12-08T18:23:21;43.90;;;28.27;;
21671;SDS011;10997;52.242;8.168;2022-12-08T18:28:22;41.05;;;25.08;;
21671;SDS011;10997;52.242;8.168;2022-12-08T18:33:23;38.22;;;27.33;;
21671;SDS011;10997;52.242;8.168;2022-12-08T18:38:24;29.88;;;20.83;;
21671;SDS011;10997;52.242;8.168;2022-12-08T18:43:24;31.20;;;19.80;;
21671;SDS011;10997;52.242;8.168;2022-12-08T18:48:25;39.35;;;24.65;;
21671;SDS011;10997;52.242;8.168;2022-12-08T18:53:25;34.40;;;22.50;;
21671;SDS011;10997;52.242;8.168;2022-12-08T18:58:26;32.90;;;21.73;;
21671;SDS011;10997;52.242;8.168;2022-12-08T19:03:26;31.92;;;21.05;;
21671;SDS011;10997;52.242;8.168;2022-12-08T19:08:27;34.55;;;21.58;;
21671;SDS011;10997;52.242;8.168;2022-12-08T19:13:28;42.53;;;24.77;;
21671;SDS011;10997;52.242;8.168;2022-12-08T19:18:29;37.80;;;24.92;;
21671;SDS011;10997;52.242;8.168;2022-12-08T19:23:30;35.28;;;24.80;;
21671;SDS011;10997;52.242;8.168;2022-12-08T19:28:30;33.60;;;23.83;;
21671;SDS011;10997;52.242;8.168;2022-12-08T19:33:32;40.13;;;27.08;;
21671;SDS011;10997;52.242;8.168;2022-12-08T19:38:32;33.63;;;23.23;;
21671;SDS011;10997;52.242;8.168;2022-12-08T19:43:51;29.30;;;19.38;;
21671;SDS011;10997;52.242;8.168;2022-12-08T19:49:10;32.47;;;22.17;;
21671;SDS011;10997;52.242;8.168;2022-12-08T19:54:11;28.00;;;20.83;;
21671;SDS011;10997;52.242;8.168;2022-12-08T19:59:12;30.40;;;20.73;;
21671;SDS011;10997;52.242;8.168;2022-12-08T20:04:14;32.83;;;21.73;;
21671;SDS011;10997;52.242;8.168;2022-12-08T20:09:15;36.05;;;23.92;;
21671;SDS011;10997;52.242;8.168;2022-12-08T20:14:16;60.97;;;37.53;;
21671;SDS011;10997;52.242;8.168;2022-12-08T20:19:17;61.28;;;36.00;;
21671;SDS011;10997;52.242;8.168;2022-12-08T20:24:18;54.63;;;30.05;;
21671;SDS011;10997;52.242;8.168;2022-12-08T20:29:19;47.63;;;28.65;;
21671;SDS011;10997;52.242;8.168;2022-12-08T20:34:19;48.85;;;28.67;;
21671;SDS011;10997;52.242;8.168;2022-12-08T20:39:20;47.38;;;27.00;;
21671;SDS011;10997;52.242;8.168;2022-12-08T20:44:21;47.35;;;27.20;;
21671;SDS011;10997;52.242;8.168;2022-12-08T20:49:21;45.67;;;26.35;;
21671;SDS011;10997;52.242;8.168;2022-12-08T20:54:22;52.72;;;30.20;;
21671;SDS011;10997;52.242;8.168;2022-12-08T20:59:23;40.38;;;25.13;;
21671;SDS011;10997;52.242;8.168;2022-12-08T21:04:25;38.47;;;24.80;;
21671;SDS011;10997;52.242;8.168;2022-12-08T21:09:26;37.08;;;23.25;;
21671;SDS011;10997;52.242;8.168;2022-12-08T21:14:27;35.63;;;20.92;;
21671;SDS011;10997;52.242;8.168;2022-12-08T21:19:27;35.28;;;21.67;;
21671;SDS011;10997;52.242;8.168;2022-12-08T21:24:28;38.92;;;23.52;;
21671;SDS011;10997;52.242;8.168;2022-12-08T21:29:29;36.38;;;22.55;;
21671;SDS011;10997;52.242;8.168;2022-12-08T21:34:29;33.88;;;22.42;;
21671;SDS011;10997;52.242;8.168;2022-12-08T21:39:32;41.30;;;23.90;;
21671;SDS011;10997;52.242;8.168;2022-12-08T21:44:33;38.20;;;23.85;;
21671;SDS011;10997;52.242;8.168;2022-12-08T21:49:36;46.05;;;28.02;;
21671;SDS011;10997;52.242;8.168;2022-12-08T21:54:37;41.42;;;26.00;;
21671;SDS011;10997;52.242;8.168;2022-12-08T21:59:37;41.75;;;25.13;;
21671;SDS011;10997;52.242;8.168;2022-12-08T22:04:38;44.65;;;26.90;;
21671;SDS011;10997;52.242;8.168;2022-12-08T22:09:39;39.20;;;23.05;;
21671;SDS011;10997;52.242;8.168;2022-12-08T22:14:39;36.75;;;21.73;;
21671;SDS011;10997;52.242;8.168;2022-12-08T22:19:40;30.73;;;19.40;;
21671;SDS011;10997;52.242;8.168;2022-12-08T22:24:41;31.05;;;18.95;;
21671;SDS011;10997;52.242;8.168;2022-12-08T22:29:42;33.22;;;19.30;;
21671;SDS011;10997;52.242;8.168;2022-12-08T22:34:43;39.45;;;22.90;;
21671;SDS011;10997;52.242;8.168;2022-12-08T22:39:43;40.17;;;23.45;;
21671;SDS011;10997;52.242;8.168;2022-12-08T22:44:44;46.92;;;25.77;;
21671;SDS011;10997;52.242;8.168;2022-12-08T22:49:45;35.63;;;20.80;;
21671;SDS011;10997;52.242;8.168;2022-12-08T22:54:45;41.67;;;23.40;;
21671;SDS011;10997;52.242;8.168;2022-12-08T22:59:46;35.78;;;20.42;;
21671;SDS011;10997;52.242;8.168;2022-12-08T23:04:46;39.83;;;22.00;;
21671;SDS011;10997;52.242;8.168;2022-12-08T23:09:47;39.42;;;22.00;;
21671;SDS011;10997;52.242;8.168;2022-12-08T23:14:52;39.92;;;22.33;;
21671;SDS011;10997;52.242;8.168;2022-12-08T23:19:52;40.83;;;22.38;;
21671;SDS011;10997;52.242;8.168;2022-12-08T23:24:53;45.28;;;23.52;;
21671;SDS011;10997;52.242;8.168;2022-12-08T23:29:53;50.15;;;26.17;;
21671;SDS011;10997;52.242;8.168;2022-12-08T23:40:44;47.55;;;25.17;;
21671;SDS011;10997;52.242;8.168;2022-12-08T23:45:45;44.15;;;23.20;;
21671;SDS011;10997;52.242;8.168;2022-12-08T23:50:47;44.10;;;23.27;;
21671;SDS011;10997;52.242;8.168;2022-12-08T23:55:47;45.47;;;24.42;;
